Time;durP1;ratioP1;P1;durP2;ratioP2;P2;SDS_P1;SDS_P2;PMS_P1;PMS_P2;Temp;Humidity;BMP_temperature;BMP_pressure;BME280_temperature;BME280_humidity;BME280_pressure;Samples;Min_cycle;Max_cycle;Signal;HPM_P1;HPM_P2
2023/08/08 00:02:06;;;;;;;;;;;;;;;;;;5085682;28;20323;-76
2023/08/08 00:04:32;;;;;;;;;;;;;;;;;;5092352;28;20002;-75
2023/08/08 00:06:58;;;;;;;;;;;;;;;;;;5069983;28;19985;-75
2023/08/08 00:09:24;;;;;;;;;;;;;;;;;;5053143;28;19945;-74
2023/08/08 00:11:50;;;;;;;;;;;;;;;;;;5064022;28;19917;-75
2023/08/08 00:14:16;;;;;;;;;;;;;;;;;;5081224;28;19912;-75
2023/08/08 00:16:42;;;;;;;;;;;;;;;;;;5073987;28;20011;-75
2023/08/08 00:19:08;;;;;;;;;;;;;;;;;;5076413;28;19964;-75
2023/08/08 00:21:34;;;;;;;;;;;;;;;;;;5070638;28;19962;-74
2023/08/08 00:23:59;;;;;;;;;;;;;;;;;;5073172;28;20008;-73
2023/08/08 00:26:25;;;;;;;;;;;;;;;;;;5067279;28;20339;-76
2023/08/08 00:28:51;;;;;;;;;;;;;;;;;;5071169;28;19938;-74
2023/08/08 00:31:19;;;;;;;;;;;;;;;;;;5070478;28;19970;-72
2023/08/08 00:33:45;;;;;;;;;;;;;;;;;;5058883;28;20323;-76
2023/08/08 00:36:11;;;;;;;;;;;;;;;;;;5067681;28;19919;-75
2023/08/08 00:38:37;;;;;;;;;;;;;;;;;;5073684;28;19955;-74
2023/08/08 00:41:04;;;;;;;;;;;;;;;;;;5062803;28;20433;-70
2023/08/08 00:43:30;;;;;;;;;;;;;;;;;;5064262;28;19916;-75
2023/08/08 00:45:56;;;;;;;;;;;;;;;;;;5061079;28;20270;-74
2023/08/08 00:48:22;;;;;;;;;;;;;;;;;;5066860;28;19916;-75
2023/08/08 00:50:48;;;;;;;;;;;;;;;;;;5071043;28;19923;-73
2023/08/08 00:53:14;;;;;;;;;;;;;;;;;;5059777;28;19950;-75
2023/08/08 00:55:40;;;;;;;;;;;;;;;;;;5067365;28;20007;-75
2023/08/08 00:58:06;;;;;;;;;;;;;;;;;;5060403;28;19913;-75
2023/08/08 01:00:32;;;;;;;;;;;;;;;;;;5074667;28;19962;-63
2023/08/08 01:02:58;;;;;;;;;;;;;;;;;;5063031;28;20388;-63
2023/08/08 01:05:23;;;;;;;;;;;;;;;;;;5071477;28;19943;-63
2023/08/08 01:07:49;;;;;;;;;;;;;;;;;;5064339;28;19912;-63
2023/08/08 01:10:15;;;;;;;;;;;;;;;;;;5069055;28;19923;-63
2023/08/08 01:12:41;;;;;;;;;;;;;;;;;;5067910;28;19917;-63
2023/08/08 01:15:08;;;;;;;;;;;;;;;;;;5061679;28;19996;-65
2023/08/08 01:17:34;;;;;;;;;;;;;;;;;;5063400;28;19936;-66
2023/08/08 01:20:00;;;;;;;;;;;;;;;;;;5068533;28;19974;-63
2023/08/08 01:22:26;;;;;;;;;;;;;;;;;;5068826;28;19924;-64
2023/08/08 01:24:52;;;;;;;;;;;;;;;;;;5062766;28;19917;-64
2023/08/08 01:27:18;;;;;;;;;;;;;;;;;;5064783;28;19947;-63
2023/08/08 01:29:44;;;;;;;;;;;;;;;;;;5067295;28;19959;-64
2023/08/08 01:32:10;;;;;;;;;;;;;;;;;;5077786;28;19912;-64
2023/08/08 01:34:36;;;;;;;;;;;;;;;;;;5074268;28;20375;-64
2023/08/08 01:37:02;;;;;;;;;;;;;;;;;;5063494;28;20012;-64
2023/08/08 01:39:28;;;;;;;;;;;;;;;;;;5060432;28;19917;-63
2023/08/08 01:41:54;;;;;;;;;;;;;;;;;;5054156;28;20019;-63
2023/08/08 01:44:20;;;;;;;;;;;;;;;;;;5071248;28;19913;-62
2023/08/08 01:46:46;;;;;;;;;;;;;;;;;;5073554;28;19999;-63
2023/08/08 01:49:11;;;;;;;;;;;;;;;;;;5077073;28;19923;-64
2023/08/08 01:51:37;;;;;;;;;;;;;;;;;;5068166;28;19934;-63
2023/08/08 01:54:04;;;;;;;;;;;;;;;;;;5073956;28;19919;-64
2023/08/08 01:56:29;;;;;;;;;;;;;;;;;;5062714;28;20551;-63
2023/08/08 01:58:56;;;;;;;;;;;;;;;;;;5068237;28;19935;-65
2023/08/08 02:01:22;;;;;;;;;;;;;;;;;;5074151;28;19951;-64
2023/08/08 02:03:48;;;;;;;;;;;;;;;;;;5062396;28;20701;-63
2023/08/08 02:06:14;;;;;;;;;;;;;;;;;;5061328;28;20003;-77
2023/08/08 02:08:40;;;;;;;;;;;;;;;;;;5063943;28;19916;-74
2023/08/08 02:11:06;;;;;;;;;;;;;;;;;;5068312;28;20029;-75
2023/08/08 02:13:31;;;;;;;;;;;;;;;;;;5056526;28;20388;-73
2023/08/08 02:15:57;;;;;;;;;;;;;;;;;;5061777;28;19916;-77
2023/08/08 02:18:23;;;;;;;;;;;;;;;;;;5065942;28;20375;-75
2023/08/08 02:20:49;;;;;;;;;;;;;;;;;;5064377;28;19921;-76
2023/08/08 02:23:15;;;;;;;;;;;;;;;;;;5055329;28;19912;-75
2023/08/08 02:25:41;;;;;;;;;;;;;;;;;;5079506;28;19942;-76
2023/08/08 02:28:07;;;;;;;;;;;;;;;;;;5069367;28;19951;-76
2023/08/08 02:30:33;;;;;;;;;;;;;;;;;;5070566;28;19995;-76
2023/08/08 02:32:59;;;;;;;;;;;;;;;;;;5073486;28;19923;-77
2023/08/08 02:35:24;;;;;;;;;;;;;;;;;;5060930;28;19920;-77
2023/08/08 02:37:50;;;;;;;;;;;;;;;;;;5051576;28;20395;-74
2023/08/08 02:40:17;;;;;;;;;;;;;;;;;;5071763;28;19947;-76
2023/08/08 02:42:43;;;;;;;;;;;;;;;;;;5058064;28;19921;-75
2023/08/08 02:45:09;;;;;;;;;;;;;;;;;;5056916;28;20007;-77
2023/08/08 02:47:34;;;;;;;;;;;;;;;;;;5057933;28;19913;-75
2023/08/08 02:50:00;;;;;;;;;;;;;;;;;;5063400;28;20372;-75
2023/08/08 02:52:26;;;;;;;;;;;;;;;;;;5060016;28;19960;-76
2023/08/08 02:54:52;;;;;;;;;;;;;;;;;;5072006;28;20018;-72
2023/08/08 02:57:18;;;;;;;;;;;;;;;;;;5062453;28;19917;-76
2023/08/08 02:59:44;;;;;;;;;;;;;;;;;;5065313;28;20272;-75
2023/08/08 03:02:10;;;;;;;;;;;;;;;;;;5063659;28;20011;-76
2023/08/08 03:04:36;;;;;;;;;;;;;;;;;;5072878;28;19912;-75
2023/08/08 03:07:03;;;;;;;;;;;;;;;;;;5062892;28;19963;-75
2023/08/08 03:09:29;;;;;;;;;;;;;;;;;;5065417;28;19916;-75
2023/08/08 03:11:55;;;;;;;;;;;;;;;;;;5069918;28;19952;-76
2023/08/08 03:14:21;;;;;;;;;;;;;;;;;;5070343;28;20410;-74
2023/08/08 03:16:47;;;;;;;;;;;;;;;;;;5056549;28;19944;-63
2023/08/08 03:19:13;;;;;;;;;;;;;;;;;;5061808;28;20003;-64
2023/08/08 03:21:39;;;;;;;;;;;;;;;;;;5064883;28;19930;-63
2023/08/08 03:24:05;;;;;;;;;;;;;;;;;;5066461;28;19917;-64
2023/08/08 03:26:31;;;;;;;;;;;;;;;;;;5062084;28;20253;-63
2023/08/08 03:28:56;;;;;;;;;;;;;;;;;;5054577;28;19943;-62
2023/08/08 03:31:23;;;;;;;;;;;;;;;;;;5064645;28;19931;-63
2023/08/08 03:33:49;;;;;;;;;;;;;;;;;;5057285;28;19919;-63
2023/08/08 03:36:15;;;;;;;;;;;;;;;;;;5053930;28;19913;-62
2023/08/08 03:38:45;;;;;;;;;;;;;;;;;;5058391;28;19967;-63
2023/08/08 03:41:11;;;;;;;;;;;;;;;;;;5065137;28;19917;-63
2023/08/08 03:43:37;;;;;;;;;;;;;;;;;;5068157;28;19935;-65
2023/08/08 03:46:03;;;;;;;;;;;;;;;;;;5052048;28;20260;-63
2023/08/08 03:48:29;;;;;;;;;;;;;;;;;;5062659;28;20324;-65
2023/08/08 03:50:55;;;;;;;;;;;;;;;;;;5064845;28;20010;-63
2023/08/08 03:53:21;;;;;;;;;;;;;;;;;;5055169;28;19931;-64
2023/08/08 03:55:46;;;;;;;;;;;;;;;;;;5080212;28;19943;-63
2023/08/08 03:58:12;;;;;;;;;;;;;;;;;;5074349;28;20320;-63
2023/08/08 04:00:45;;;;;;;;;;;;;;;;;;5060083;28;19917;-64
2023/08/08 04:03:11;;;;;;;;;;;;;;;;;;5057893;28;19913;-65
2023/08/08 04:05:37;;;;;;;;;;;;;;;;;;5073591;28;20042;-63
2023/08/08 04:08:03;;;;;;;;;;;;;;;;;;5068615;28;19913;-65
2023/08/08 04:10:29;;;;;;;;;;;;;;;;;;5068978;28;19923;-63
2023/08/08 04:12:54;;;;;;;;;;;;;;;;;;5064824;28;19913;-63
2023/08/08 04:15:21;;;;;;;;;;;;;;;;;;5066016;28;19974;-63
2023/08/08 04:17:46;;;;;;;;;;;;;;;;;;5067754;28;20288;-63
2023/08/08 04:20:13;;;;;;;;;;;;;;;;;;5068551;28;19959;-63
2023/08/08 04:22:40;;;;;;;;;;;;;;;;;;5067767;28;19916;-63
2023/08/08 04:25:06;;;;;;;;;;;;;;;;;;5071645;28;19958;-75
2023/08/08 04:27:31;;;;;;;;;;;;;;;;;;5072184;28;20324;-76
2023/08/08 04:29:57;;;;;;;;;;;;;;;;;;5068064;28;19960;-76
2023/08/08 04:32:23;;;;;;;;;;;;;;;;;;5068567;28;19913;-72
2023/08/08 04:34:49;;;;;;;;;;;;;;;;;;5077334;28;19928;-75
2023/08/08 04:37:15;;;;;;;;;;;;;;;;;;5069957;28;20022;-75
2023/08/08 04:39:41;;;;;;;;;;;;;;;;;;5070485;28;20324;-75
2023/08/08 04:42:07;;;;;;;;;;;;;;;;;;5058949;28;19916;-76
2023/08/08 04:44:33;;;;;;;;;;;;;;;;;;5063933;28;19913;-77
2023/08/08 04:46:59;;;;;;;;;;;;;;;;;;5065295;28;19927;-75
2023/08/08 04:49:24;;;;;;;;;;;;;;;;;;5067905;28;19966;-74
2023/08/08 04:51:50;;;;;;;;;;;;;;;;;;5066474;28;19913;-74
2023/08/08 04:54:16;;;;;;;;;;;;;;;;;;5063987;28;19960;-76
2023/08/08 04:56:42;;;;;;;;;;;;;;;;;;5067847;28;20016;-75
2023/08/08 04:59:08;;;;;;;;;;;;;;;;;;5061972;28;19923;-76
2023/08/08 05:01:34;;;;;;;;;;;;;;;;;;5061233;28;20023;-74
2023/08/08 05:04:00;;;;;;;;;;;;;;;;;;5066912;28;19916;-75
2023/08/08 05:06:26;;;;;;;;;;;;;;;;;;5071326;28;20013;-75
2023/08/08 05:08:52;;;;;;;;;;;;;;;;;;5064332;28;19932;-75
2023/08/08 05:11:18;;;;;;;;;;;;;;;;;;5061712;28;20003;-75
2023/08/08 05:13:43;;;;;;;;;;;;;;;;;;5067873;28;19935;-74
2023/08/08 05:16:09;;;;;;;;;;;;;;;;;;5066327;28;19921;-74
2023/08/08 05:18:35;;;;;;;;;;;;;;;;;;5065352;28;20026;-72
2023/08/08 05:21:01;;;;;;;;;;;;;;;;;;5068241;28;19960;-75
2023/08/08 05:23:27;;;;;;;;;;;;;;;;;;5072013;28;20283;-76
2023/08/08 05:25:53;;;;;;;;;;;;;;;;;;5072956;28;19915;-75
2023/08/08 05:28:20;;;;;;;;;;;;;;;;;;5063451;28;19912;-76
2023/08/08 05:30:46;;;;;;;;;;;;;;;;;;5074955;28;19917;-73
2023/08/08 05:33:12;;;;;;;;;;;;;;;;;;5063965;28;20330;-74
2023/08/08 05:35:38;;;;;;;;;;;;;;;;;;5065078;28;20303;-69
2023/08/08 05:38:04;;;;;;;;;;;;;;;;;;5074926;28;19965;-73
2023/08/08 05:40:30;;;;;;;;;;;;;;;;;;5073434;28;19915;-74
2023/08/08 05:42:56;;;;;;;;;;;;;;;;;;5068262;28;20489;-75
2023/08/08 05:45:21;;;;;;;;;;;;;;;;;;5062240;28;19919;-73
2023/08/08 05:47:47;;;;;;;;;;;;;;;;;;5068525;28;19916;-75
2023/08/08 05:50:13;;;;;;;;;;;;;;;;;;5058651;28;20296;-76
2023/08/08 05:52:39;;;;;;;;;;;;;;;;;;5060505;28;19999;-75
2023/08/08 05:55:05;;;;;;;;;;;;;;;;;;5077083;28;19917;-66
2023/08/08 05:57:31;;;;;;;;;;;;;;;;;;5065846;28;19959;-65
2023/08/08 05:59:57;;;;;;;;;;;;;;;;;;5067046;28;20320;-65
2023/08/08 06:02:23;;;;;;;;;;;;;;;;;;5072714;28;19920;-65
2023/08/08 06:04:49;;;;;;;;;;;;;;;;;;5064214;28;20374;-65
2023/08/08 06:07:15;;;;;;;;;;;;;;;;;;5072371;28;19999;-66
2023/08/08 06:09:41;;;;;;;;;;;;;;;;;;5070893;28;19913;-65
2023/08/08 06:12:07;;;;;;;;;;;;;;;;;;5075705;28;19977;-65
2023/08/08 06:14:33;;;;;;;;;;;;;;;;;;5071397;28;20003;-66
2023/08/08 06:16:59;;;;;;;;;;;;;;;;;;5072648;28;20046;-66
2023/08/08 06:19:25;;;;;;;;;;;;;;;;;;5072815;28;20397;-66
2023/08/08 06:21:51;;;;;;;;;;;;;;;;;;5067459;28;20035;-66
2023/08/08 06:24:17;;;;;;;;;;;;;;;;;;5065335;28;19958;-66
2023/08/08 06:26:43;;;;;;;;;;;;;;;;;;5062062;28;19913;-66
2023/08/08 06:29:09;;;;;;;;;;;;;;;;;;5071880;28;19939;-66
2023/08/08 06:31:35;;;;;;;;;;;;;;;;;;5070478;28;19990;-65
2023/08/08 06:34:01;;;;;;;;;;;;;;;;;;5064268;28;19909;-66
2023/08/08 06:36:27;;;;;;;;;;;;;;;;;;5069819;28;19920;-65
2023/08/08 06:38:53;;;;;;;;;;;;;;;;;;5069274;28;19912;-66
2023/08/08 06:41:19;;;;;;;;;;;;;;;;;;5061259;28;20448;-66
2023/08/08 06:43:45;;;;;;;;;;;;;;;;;;5067080;28;19912;-66
2023/08/08 06:46:11;;;;;;;;;;;;;;;;;;5070574;28;20352;-66
2023/08/08 06:48:36;;;;;;;;;;;;;;;;;;5075556;28;19912;-66
2023/08/08 06:51:02;;;;;;;;;;;;;;;;;;5069077;28;19913;-65
2023/08/08 06:53:28;;;;;;;;;;;;;;;;;;5068536;28;20427;-65
2023/08/08 06:55:54;;;;;;;;;;;;;;;;;;5064016;28;19923;-76
2023/08/08 06:58:20;;;;;;;;;;;;;;;;;;5064771;28;20067;-74
2023/08/08 07:00:46;;;;;;;;;;;;;;;;;;5065934;28;19916;-76
2023/08/08 07:03:12;;;;;;;;;;;;;;;;;;5067249;28;19915;-76
2023/08/08 07:05:39;;;;;;;;;;;;;;;;;;5058820;28;19913;-63
2023/08/08 07:08:05;;;;;;;;;;;;;;;;;;5066592;28;19912;-62
2023/08/08 07:10:31;;;;;;;;;;;;;;;;;;5063908;28;19983;-63
2023/08/08 07:12:57;;;;;;;;;;;;;;;;;;5064926;28;19963;-64
2023/08/08 07:15:23;;;;;;;;;;;;;;;;;;5068569;28;19955;-63
2023/08/08 07:17:49;;;;;;;;;;;;;;;;;;5067771;28;19962;-64
2023/08/08 07:20:15;;;;;;;;;;;;;;;;;;5071952;28;19925;-63
2023/08/08 07:22:41;;;;;;;;;;;;;;;;;;5069373;28;20398;-63
2023/08/08 07:25:07;;;;;;;;;;;;;;;;;;5060196;28;20383;-65
2023/08/08 07:27:33;;;;;;;;;;;;;;;;;;5067975;28;19960;-63
2023/08/08 07:30:00;;;;;;;;;;;;;;;;;;5060659;28;19923;-63
2023/08/08 07:32:26;;;;;;;;;;;;;;;;;;5070854;28;19954;-67
2023/08/08 07:34:52;;;;;;;;;;;;;;;;;;5068861;28;19916;-63
2023/08/08 07:37:18;;;;;;;;;;;;;;;;;;5083036;28;19950;-63
2023/08/08 07:39:44;;;;;;;;;;;;;;;;;;5071147;28;19919;-64
2023/08/08 07:42:10;;;;;;;;;;;;;;;;;;5061318;28;20321;-63
2023/08/08 07:44:38;;;;;;;;;;;;;;;;;;5071184;28;19947;-63
2023/08/08 07:47:04;;;;;;;;;;;;;;;;;;5071440;28;20288;-63
2023/08/08 07:49:30;;;;;;;;;;;;;;;;;;5071355;28;19912;-63
2023/08/08 07:51:56;;;;;;;;;;;;;;;;;;5079005;28;20382;-63
2023/08/08 07:54:21;;;;;;;;;;;;;;;;;;5069116;28;19913;-63
2023/08/08 07:56:47;;;;;;;;;;;;;;;;;;5066533;28;19959;-64
2023/08/08 07:59:13;;;;;;;;;;;;;;;;;;5073763;28;19912;-63
2023/08/08 08:01:39;;;;;;;;;;;;;;;;;;5070671;28;19930;-64
2023/08/08 08:04:05;;;;;;;;;;;;;;;;;;5069977;28;20390;-63
2023/08/08 08:06:31;;;;;;;;;;;;;;;;;;5071318;28;19914;-63
2023/08/08 08:08:57;;;;;;;;;;;;;;;;;;5064510;28;19920;-62
2023/08/08 08:11:23;;;;;;;;;;;;;;;;;;5067997;28;19957;-63
2023/08/08 08:13:49;;;;;;;;;;;;;;;;;;5071796;28;19913;-63
2023/08/08 08:16:15;;;;;;;;;;;;;;;;;;5069389;28;20403;-63
2023/08/08 08:18:41;;;;;;;;;;;;;;;;;;5068253;28;19931;-64
2023/08/08 08:21:07;;;;;;;;;;;;;;;;;;5066364;28;20291;-63
2023/08/08 08:23:33;;;;;;;;;;;;;;;;;;5059523;28;19952;-63
2023/08/08 08:25:59;;;;;;;;;;;;;;;;;;5056872;28;20016;-64
2023/08/08 08:28:25;;;;;;;;;;;;;;;;;;5065720;28;19954;-63
2023/08/08 08:30:51;;;;;;;;;;;;;;;;;;5070679;28;19915;-66
2023/08/08 08:33:17;;;;;;;;;;;;;;;;;;5070319;28;19912;-65
2023/08/08 08:35:43;;;;;;;;;;;;;;;;;;5072674;28;19973;-64
2023/08/08 08:38:09;;;;;;;;;;;;;;;;;;5074501;28;19920;-64
2023/08/08 08:40:35;;;;;;;;;;;;;;;;;;5074075;28;19973;-64
2023/08/08 08:43:00;;;;;;;;;;;;;;;;;;5073261;28;20399;-64
2023/08/08 08:45:26;;;;;;;;;;;;;;;;;;5074354;28;19951;-64
2023/08/08 08:47:52;;;;;;;;;;;;;;;;;;5070259;28;20398;-64
2023/08/08 08:50:18;;;;;;;;;;;;;;;;;;5072265;28;19975;-63
2023/08/08 08:52:44;;;;;;;;;;;;;;;;;;5078990;28;19974;-64
2023/08/08 08:55:10;;;;;;;;;;;;;;;;;;5073909;28;19908;-64
2023/08/08 08:57:37;;;;;;;;;;;;;;;;;;5065550;28;19978;-63
2023/08/08 09:00:03;;;;;;;;;;;;;;;;;;5067215;28;20057;-63
2023/08/08 09:02:29;;;;;;;;;;;;;;;;;;5065325;28;19928;-64
2023/08/08 09:04:55;;;;;;;;;;;;;;;;;;5073904;28;20377;-64
2023/08/08 09:07:21;;;;;;;;;;;;;;;;;;5069730;28;19978;-64
2023/08/08 09:09:46;;;;;;;;;;;;;;;;;;5073591;28;19955;-65
2023/08/08 09:12:12;;;;;;;;;;;;;;;;;;5073922;28;19908;-64
2023/08/08 09:14:38;;;;;;;;;;;;;;;;;;5070312;28;19925;-63
2023/08/08 09:17:04;;;;;;;;;;;;;;;;;;5062765;28;19912;-65
2023/08/08 09:19:30;;;;;;;;;;;;;;;;;;5072576;28;20419;-66
2023/08/08 09:21:56;;;;;;;;;;;;;;;;;;5073278;28;19930;-66
2023/08/08 09:24:22;;;;;;;;;;;;;;;;;;5073714;28;20277;-66
2023/08/08 09:26:48;;;;;;;;;;;;;;;;;;5073566;28;19909;-62
2023/08/08 09:29:14;;;;;;;;;;;;;;;;;;5073716;28;19944;-62
2023/08/08 09:31:40;;;;;;;;;;;;;;;;;;5072674;28;19908;-62
2023/08/08 09:34:06;;;;;;;;;;;;;;;;;;5074513;28;20017;-63
2023/08/08 09:36:33;;;;;;;;;;;;;;;;;;5074965;28;19916;-64
2023/08/08 09:38:59;;;;;;;;;;;;;;;;;;5073406;28;19918;-64
2023/08/08 09:41:25;;;;;;;;;;;;;;;;;;5064881;28;19959;-65
2023/08/08 09:43:50;;;;;;;;;;;;;;;;;;5071837;28;20015;-63
2023/08/08 09:46:16;;;;;;;;;;;;;;;;;;5072256;28;19948;-64
2023/08/08 09:48:43;;;;;;;;;;;;;;;;;;5070368;28;19908;-64
2023/08/08 09:51:09;;;;;;;;;;;;;;;;;;5064073;28;20364;-64
2023/08/08 09:53:35;;;;;;;;;;;;;;;;;;5069658;28;19919;-66
2023/08/08 09:56:01;;;;;;;;;;;;;;;;;;5071252;28;19912;-64
2023/08/08 09:58:27;;;;;;;;;;;;;;;;;;5064120;28;20314;-65
2023/08/08 10:00:52;;;;;;;;;;;;;;;;;;5067491;28;20372;-64
2023/08/08 10:03:18;;;;;;;;;;;;;;;;;;5071921;28;19919;-63
2023/08/08 10:05:44;;;;;;;;;;;;;;;;;;5072777;28;19912;-65
2023/08/08 10:08:10;;;;;;;;;;;;;;;;;;5071280;28;19947;-65
2023/08/08 10:10:36;;;;;;;;;;;;;;;;;;5078882;28;19960;-64
2023/08/08 10:13:02;;;;;;;;;;;;;;;;;;5067125;28;19948;-64
2023/08/08 10:15:28;;;;;;;;;;;;;;;;;;5068713;28;19954;-64
2023/08/08 10:17:54;;;;;;;;;;;;;;;;;;5061315;28;20003;-66
2023/08/08 10:20:21;;;;;;;;;;;;;;;;;;5064549;28;19932;-64
2023/08/08 10:22:47;;;;;;;;;;;;;;;;;;5073405;28;20368;-64
2023/08/08 10:25:13;;;;;;;;;;;;;;;;;;5072391;28;20317;-63
2023/08/08 10:27:40;;;;;;;;;;;;;;;;;;5072380;28;19940;-63
2023/08/08 10:30:07;;;;;;;;;;;;;;;;;;5077869;28;19912;-64
2023/08/08 10:32:32;;;;;;;;;;;;;;;;;;5066688;28;19920;-62
2023/08/08 10:35:00;;;;;;;;;;;;;;;;;;5065012;28;20087;-65
2023/08/08 10:37:26;;;;;;;;;;;;;;;;;;5077552;28;19917;-64
2023/08/08 10:39:53;;;;;;;;;;;;;;;;;;5057331;28;19960;-64
2023/08/08 10:42:19;;;;;;;;;;;;;;;;;;5070404;28;19924;-65
2023/08/08 10:44:45;;;;;;;;;;;;;;;;;;5067681;28;20031;-65
2023/08/08 10:47:11;;;;;;;;;;;;;;;;;;5070820;28;20615;-65
2023/08/08 10:49:36;;;;;;;;;;;;;;;;;;5061785;28;19955;-65
2023/08/08 10:52:02;;;;;;;;;;;;;;;;;;5071229;28;19912;-64
2023/08/08 10:54:30;;;;;;;;;;;;;;;;;;5070465;28;19912;-65
2023/08/08 10:56:56;;;;;;;;;;;;;;;;;;5072077;28;19959;-61
2023/08/08 10:59:22;;;;;;;;;;;;;;;;;;5070822;28;19958;-61
2023/08/08 11:01:49;;;;;;;;;;;;;;;;;;5069642;28;20355;-62
2023/08/08 11:04:14;;;;;;;;;;;;;;;;;;5067376;28;19913;-61
2023/08/08 11:06:40;;;;;;;;;;;;;;;;;;5071787;28;20360;-61
2023/08/08 11:09:06;;;;;;;;;;;;;;;;;;5075306;28;19947;-64
2023/08/08 11:11:32;;;;;;;;;;;;;;;;;;5069921;28;19975;-63
2023/08/08 11:13:58;;;;;;;;;;;;;;;;;;5071476;28;19912;-63
2023/08/08 11:16:24;;;;;;;;;;;;;;;;;;5064280;28;19966;-63
2023/08/08 11:18:50;;;;;;;;;;;;;;;;;;5065629;28;20392;-63
2023/08/08 11:21:16;;;;;;;;;;;;;;;;;;5071369;28;20023;-63
2023/08/08 11:23:42;;;;;;;;;;;;;;;;;;5060759;28;20012;-63
2023/08/08 11:26:08;;;;;;;;;;;;;;;;;;5080458;28;19912;-63
2023/08/08 11:28:35;;;;;;;;;;;;;;;;;;5074613;28;20370;-63
2023/08/08 11:31:00;;;;;;;;;;;;;;;;;;5069899;28;20257;-64
2023/08/08 11:33:26;;;;;;;;;;;;;;;;;;5069927;28;19920;-64
2023/08/08 11:35:52;;;;;;;;;;;;;;;;;;5064226;28;20004;-75
2023/08/08 11:38:18;;;;;;;;;;;;;;;;;;5071320;28;19963;-74
2023/08/08 11:40:45;;;;;;;;;;;;;;;;;;5075097;28;20007;-74
2023/08/08 11:43:11;;;;;;;;;;;;;;;;;;5072437;28;20098;-75
2023/08/08 11:45:37;;;;;;;;;;;;;;;;;;5071408;28;19919;-73
2023/08/08 11:48:03;;;;;;;;;;;;;;;;;;5071190;28;19913;-69
2023/08/08 11:50:29;;;;;;;;;;;;;;;;;;5064787;28;20370;-75
2023/08/08 11:52:55;;;;;;;;;;;;;;;;;;5061668;28;19919;-73
2023/08/08 11:55:22;;;;;;;;;;;;;;;;;;5069386;28;20353;-73
2023/08/08 11:57:48;;;;;;;;;;;;;;;;;;5073118;28;20495;-75
2023/08/08 12:00:14;;;;;;;;;;;;;;;;;;5070736;28;19999;-75
2023/08/08 12:02:40;;;;;;;;;;;;;;;;;;5071185;28;19920;-74
2023/08/08 12:05:06;;;;;;;;;;;;;;;;;;5070853;28;20052;-74
2023/08/08 12:07:33;;;;;;;;;;;;;;;;;;5071059;28;20049;-74
2023/08/08 12:09:58;;;;;;;;;;;;;;;;;;5072134;28;19999;-74
2023/08/08 12:12:24;;;;;;;;;;;;;;;;;;5073590;28;19960;-74
2023/08/08 12:14:50;;;;;;;;;;;;;;;;;;5073773;28;20301;-74
2023/08/08 12:17:16;;;;;;;;;;;;;;;;;;5073626;28;19923;-75
2023/08/08 12:19:42;;;;;;;;;;;;;;;;;;5068526;28;19920;-74
2023/08/08 12:22:08;;;;;;;;;;;;;;;;;;5071350;28;20390;-74
2023/08/08 12:24:34;;;;;;;;;;;;;;;;;;5074751;28;19913;-72
2023/08/08 12:27:00;;;;;;;;;;;;;;;;;;5073123;28;19921;-76
2023/08/08 12:29:26;;;;;;;;;;;;;;;;;;5074867;28;20035;-74
2023/08/08 12:31:51;;;;;;;;;;;;;;;;;;5063962;28;19991;-73
2023/08/08 12:34:17;;;;;;;;;;;;;;;;;;5074234;28;20287;-74
2023/08/08 12:36:43;;;;;;;;;;;;;;;;;;5066546;28;20030;-73
2023/08/08 12:39:10;;;;;;;;;;;;;;;;;;5074546;28;20359;-74
2023/08/08 12:41:36;;;;;;;;;;;;;;;;;;5072527;28;19920;-73
2023/08/08 12:44:02;;;;;;;;;;;;;;;;;;5074251;28;19919;-74
2023/08/08 12:46:28;;;;;;;;;;;;;;;;;;5073818;28;19908;-64
2023/08/08 12:48:54;;;;;;;;;;;;;;;;;;5074263;28;20275;-65
2023/08/08 12:51:20;;;;;;;;;;;;;;;;;;5073928;28;19995;-65
2023/08/08 12:53:46;;;;;;;;;;;;;;;;;;5068984;28;19951;-66
2023/08/08 12:56:12;;;;;;;;;;;;;;;;;;5074174;28;19951;-65
2023/08/08 12:58:40;;;;;;;;;;;;;;;;;;5067347;28;20372;-61
2023/08/08 13:01:07;;;;;;;;;;;;;;;;;;5063034;28;19912;-61
2023/08/08 13:03:34;;;;;;;;;;;;;;;;;;5071821;28;19912;-62
2023/08/08 13:05:59;;;;;;;;;;;;;;;;;;5074444;28;19912;-62
2023/08/08 13:08:25;;;;;;;;;;;;;;;;;;5082979;28;19966;-61
2023/08/08 13:10:51;;;;;;;;;;;;;;;;;;5073482;28;20424;-61
2023/08/08 13:13:17;;;;;;;;;;;;;;;;;;5073979;28;19917;-61
2023/08/08 13:15:45;;;;;;;;;;;;;;;;;;5072719;28;19996;-62
2023/08/08 13:18:11;;;;;;;;;;;;;;;;;;5064875;28;19913;-61
2023/08/08 13:20:37;;;;;;;;;;;;;;;;;;5072121;28;19920;-62
2023/08/08 13:23:04;;;;;;;;;;;;;;;;;;5092966;28;20046;-64
2023/08/08 13:25:31;;;;;;;;;;;;;;;;;;5073631;28;19924;-63
2023/08/08 13:27:57;;;;;;;;;;;;;;;;;;5073818;28;19919;-62
2023/08/08 13:30:23;;;;;;;;;;;;;;;;;;5073211;28;20295;-65
2023/08/08 13:32:49;;;;;;;;;;;;;;;;;;5067773;28;19959;-63
2023/08/08 13:35:15;;;;;;;;;;;;;;;;;;5067415;28;20001;-64
2023/08/08 13:37:41;;;;;;;;;;;;;;;;;;5076228;28;19943;-63
2023/08/08 13:40:07;;;;;;;;;;;;;;;;;;5071591;28;20011;-63
2023/08/08 13:42:33;;;;;;;;;;;;;;;;;;5066563;28;19916;-63
2023/08/08 13:44:59;;;;;;;;;;;;;;;;;;5063865;28;19916;-63
2023/08/08 13:47:25;;;;;;;;;;;;;;;;;;5063851;28;19966;-63
2023/08/08 13:49:52;;;;;;;;;;;;;;;;;;5071056;28;20392;-63
2023/08/08 13:52:18;;;;;;;;;;;;;;;;;;5073071;28;19916;-63
2023/08/08 13:54:43;;;;;;;;;;;;;;;;;;5081512;28;19963;-62
2023/08/08 13:57:09;;;;;;;;;;;;;;;;;;5068802;28;20391;-62
2023/08/08 13:59:35;;;;;;;;;;;;;;;;;;5073047;28;19932;-61
2023/08/08 14:02:01;;;;;;;;;;;;;;;;;;5067248;28;19919;-62
2023/08/08 14:04:27;;;;;;;;;;;;;;;;;;5072719;28;20348;-62
2023/08/08 14:06:53;;;;;;;;;;;;;;;;;;5071216;28;19912;-66
2023/08/08 14:09:19;;;;;;;;;;;;;;;;;;5073815;28;19955;-66
2023/08/08 14:11:45;;;;;;;;;;;;;;;;;;5065456;28;19923;-64
2023/08/08 14:14:11;;;;;;;;;;;;;;;;;;5069377;28;19909;-65
2023/08/08 14:16:37;;;;;;;;;;;;;;;;;;5069992;28;20386;-65
2023/08/08 14:19:03;;;;;;;;;;;;;;;;;;5072245;28;19921;-65
2023/08/08 14:21:29;;;;;;;;;;;;;;;;;;5063788;28;20399;-65
2023/08/08 14:23:55;;;;;;;;;;;;;;;;;;5072571;28;19913;-65
2023/08/08 14:26:21;;;;;;;;;;;;;;;;;;5072972;28;20020;-65
2023/08/08 14:28:47;;;;;;;;;;;;;;;;;;5074024;28;20003;-65
2023/08/08 14:31:12;;;;;;;;;;;;;;;;;;5062330;28;20285;-66
2023/08/08 14:33:38;;;;;;;;;;;;;;;;;;5065138;28;19919;-66
2023/08/08 14:36:05;;;;;;;;;;;;;;;;;;5070532;28;19958;-66
2023/08/08 14:38:31;;;;;;;;;;;;;;;;;;5072469;28;20338;-66
2023/08/08 14:40:57;;;;;;;;;;;;;;;;;;5064604;28;19995;-68
2023/08/08 14:43:23;;;;;;;;;;;;;;;;;;5071778;28;19917;-67
2023/08/08 14:45:49;;;;;;;;;;;;;;;;;;5074610;28;21688;-67
2023/08/08 14:48:15;;;;;;;;;;;;;;;;;;5069221;28;19916;-69
2023/08/08 14:50:41;;;;;;;;;;;;;;;;;;5069875;28;19913;-69
2023/08/08 14:53:06;;;;;;;;;;;;;;;;;;5068966;28;20253;-69
2023/08/08 14:55:32;;;;;;;;;;;;;;;;;;5064738;28;20004;-70
2023/08/08 14:57:58;;;;;;;;;;;;;;;;;;5072075;28;19916;-68
2023/08/08 15:00:24;;;;;;;;;;;;;;;;;;5068775;28;20298;-69
2023/08/08 15:02:50;;;;;;;;;;;;;;;;;;5071378;28;19967;-68
2023/08/08 15:05:16;;;;;;;;;;;;;;;;;;5071405;28;20023;-63
2023/08/08 15:07:42;;;;;;;;;;;;;;;;;;5071682;28;19912;-63
2023/08/08 15:10:08;;;;;;;;;;;;;;;;;;5069806;28;19908;-63
2023/08/08 15:12:35;;;;;;;;;;;;;;;;;;5071475;28;19923;-63
2023/08/08 15:15:01;;;;;;;;;;;;;;;;;;5071776;28;20385;-69
2023/08/08 15:17:27;;;;;;;;;;;;;;;;;;5077801;28;19912;-62
2023/08/08 15:19:52;;;;;;;;;;;;;;;;;;5070925;28;20367;-62
2023/08/08 15:22:18;;;;;;;;;;;;;;;;;;5071551;28;19955;-62
2023/08/08 15:24:44;;;;;;;;;;;;;;;;;;5071413;28;19955;-61
2023/08/08 15:27:10;;;;;;;;;;;;;;;;;;5071681;28;19913;-62
2023/08/08 15:29:36;;;;;;;;;;;;;;;;;;5070155;28;20039;-66
2023/08/08 15:32:02;;;;;;;;;;;;;;;;;;5070581;28;20390;-64
2023/08/08 15:34:28;;;;;;;;;;;;;;;;;;5069784;28;19920;-63
2023/08/08 15:36:58;;;;;;;;;;;;;;;;;;5071323;28;19912;-62
2023/08/08 15:39:23;;;;;;;;;;;;;;;;;;5066432;28;19912;-62
2023/08/08 15:41:49;;;;;;;;;;;;;;;;;;5066184;28;19920;-62
2023/08/08 15:44:15;;;;;;;;;;;;;;;;;;5070933;28;20438;-62
2023/08/08 15:46:42;;;;;;;;;;;;;;;;;;5070151;28;20019;-62
2023/08/08 15:49:09;;;;;;;;;;;;;;;;;;5072954;28;19999;-62
2023/08/08 15:51:35;;;;;;;;;;;;;;;;;;5067784;28;19982;-62
2023/08/08 15:54:03;;;;;;;;;;;;;;;;;;5071389;28;20003;-62
2023/08/08 15:56:29;;;;;;;;;;;;;;;;;;5065231;28;20334;-62
2023/08/08 15:58:55;;;;;;;;;;;;;;;;;;5071399;28;19946;-62
2023/08/08 16:01:21;;;;;;;;;;;;;;;;;;5066954;28;19946;-62
2023/08/08 16:03:47;;;;;;;;;;;;;;;;;;5073794;28;19951;-62
2023/08/08 16:06:13;;;;;;;;;;;;;;;;;;5070800;28;19917;-62
2023/08/08 16:08:39;;;;;;;;;;;;;;;;;;5071018;28;19955;-62
2023/08/08 16:11:05;;;;;;;;;;;;;;;;;;5067746;28;19914;-62
2023/08/08 16:13:31;;;;;;;;;;;;;;;;;;5066016;28;20317;-61
2023/08/08 16:15:57;;;;;;;;;;;;;;;;;;5069252;28;19913;-64
2023/08/08 16:18:22;;;;;;;;;;;;;;;;;;5063447;28;20314;-63
2023/08/08 16:20:48;;;;;;;;;;;;;;;;;;5077116;28;20031;-63
2023/08/08 16:23:14;;;;;;;;;;;;;;;;;;5059705;28;19916;-63
2023/08/08 16:25:40;;;;;;;;;;;;;;;;;;5069385;28;19934;-63
2023/08/08 16:28:06;;;;;;;;;;;;;;;;;;5070689;28;19912;-64
2023/08/08 16:30:32;;;;;;;;;;;;;;;;;;5070617;28;19922;-63
2023/08/08 16:32:58;;;;;;;;;;;;;;;;;;5070199;28;20026;-63
2023/08/08 16:35:24;;;;;;;;;;;;;;;;;;5070892;28;19966;-64
2023/08/08 16:37:50;;;;;;;;;;;;;;;;;;5070350;28;20011;-64